sensor_id;sensor_type;location;lat;lon;timestamp;temperature;humidity
40123;DHT22;25832;45.490;4.912;2024-03-06T00:01:31;5.00;99.90
40123;DHT22;25832;45.490;4.912;2024-03-06T00:03:57;5.00;99.90
40123;DHT22;25832;45.490;4.912;2024-03-06T00:06:23;5.00;99.90
40123;DHT22;25832;45.490;4.912;2024-03-06T00:08:50;5.00;99.90
40123;DHT22;25832;45.490;4.912;2024-03-06T00:11:15;4.90;99.90
40123;DHT22;25832;45.490;4.912;2024-03-06T00:13:41;4.80;99.90
40123;DHT22;25832;45.490;4.912;2024-03-06T00:16:07;4.70;99.90
40123;DHT22;25832;45.490;4.912;2024-03-06T00:18:32;4.70;99.90
40123;DHT22;25832;45.490;4.912;2024-03-06T00:20:58;4.60;99.90
40123;DHT22;25832;45.490;4.912;2024-03-06T00:23:24;4.50;99.90
40123;DHT22;25832;45.490;4.912;2024-03-06T00:25:50;4.40;99.90
40123;DHT22;25832;45.490;4.912;2024-03-06T00:28:15;4.30;99.90
40123;DHT22;25832;45.490;4.912;2024-03-06T00:30:41;4.20;99.90
40123;DHT22;25832;45.490;4.912;2024-03-06T00:33:07;4.20;99.90
40123;DHT22;25832;45.490;4.912;2024-03-06T00:35:33;4.10;99.90
40123;DHT22;25832;45.490;4.912;2024-03-06T00:37:58;4.00;99.90
40123;DHT22;25832;45.490;4.912;2024-03-06T00:40:28;3.90;99.90
40123;DHT22;25832;45.490;4.912;2024-03-06T00:42:56;3.80;99.90
40123;DHT22;25832;45.490;4.912;2024-03-06T00:45:22;3.80;99.90
40123;DHT22;25832;45.490;4.912;2024-03-06T00:47:48;3.70;99.90
40123;DHT22;25832;45.490;4.912;2024-03-06T00:50:14;3.60;99.90
40123;DHT22;25832;45.490;4.912;2024-03-06T00:52:42;3.60;99.90
40123;DHT22;25832;45.490;4.912;2024-03-06T00:55:09;3.50;99.90
40123;DHT22;25832;45.490;4.912;2024-03-06T00:57:35;3.50;99.90
40123;DHT22;25832;45.490;4.912;2024-03-06T01:00:02;3.50;99.90
40123;DHT22;25832;45.490;4.912;2024-03-06T01:02:31;3.50;99.90
40123;DHT22;25832;45.490;4.912;2024-03-06T01:04:57;3.40;99.90
40123;DHT22;25832;45.490;4.912;2024-03-06T01:07:22;3.30;99.90
40123;DHT22;25832;45.490;4.912;2024-03-06T01:09:48;3.30;99.90
40123;DHT22;25832;45.490;4.912;2024-03-06T01:12:14;3.20;99.90
40123;DHT22;25832;45.490;4.912;2024-03-06T01:14:39;3.10;99.90
40123;DHT22;25832;45.490;4.912;2024-03-06T01:17:05;3.00;99.90
40123;DHT22;25832;45.490;4.912;2024-03-06T01:19:31;3.00;99.90
40123;DHT22;25832;45.490;4.912;2024-03-06T01:21:57;2.90;99.90
40123;DHT22;25832;45.490;4.912;2024-03-06T01:24:22;2.80;99.90
40123;DHT22;25832;45.490;4.912;2024-03-06T01:26:48;2.70;99.90
40123;DHT22;25832;45.490;4.912;2024-03-06T01:29:14;2.60;99.90
40123;DHT22;25832;45.490;4.912;2024-03-06T01:31:39;2.60;99.90
40123;DHT22;25832;45.490;4.912;2024-03-06T01:34:05;2.60;99.90
40123;DHT22;25832;45.490;4.912;2024-03-06T01:36:30;2.50;99.90
40123;DHT22;25832;45.490;4.912;2024-03-06T01:38:56;2.40;99.90
40123;DHT22;25832;45.490;4.912;2024-03-06T01:41:22;2.40;99.90
40123;DHT22;25832;45.490;4.912;2024-03-06T01:43:47;2.30;99.90
40123;DHT22;25832;45.490;4.912;2024-03-06T01:46:13;2.30;99.90
40123;DHT22;25832;45.490;4.912;2024-03-06T01:48:39;2.20;99.90
40123;DHT22;25832;45.490;4.912;2024-03-06T01:51:05;2.30;99.90
40123;DHT22;25832;45.490;4.912;2024-03-06T01:53:32;2.20;99.90
40123;DHT22;25832;45.490;4.912;2024-03-06T01:55:59;2.20;99.90
40123;DHT22;25832;45.490;4.912;2024-03-06T01:58:25;2.20;99.90
40123;DHT22;25832;45.490;4.912;2024-03-06T02:00:51;2.10;99.90
40123;DHT22;25832;45.490;4.912;2024-03-06T02:03:18;2.20;99.90
40123;DHT22;25832;45.490;4.912;2024-03-06T02:05:45;2.10;99.90
40123;DHT22;25832;45.490;4.912;2024-03-06T02:08:10;2.20;99.90
40123;DHT22;25832;45.490;4.912;2024-03-06T02:10:36;2.20;99.90
40123;DHT22;25832;45.490;4.912;2024-03-06T02:13:02;2.10;99.90
40123;DHT22;25832;45.490;4.912;2024-03-06T02:15:27;2.20;99.90
40123;DHT22;25832;45.490;4.912;2024-03-06T02:17:53;2.20;99.90
40123;DHT22;25832;45.490;4.912;2024-03-06T02:20:25;2.10;99.90
40123;DHT22;25832;45.490;4.912;2024-03-06T02:22:51;2.10;99.90
40123;DHT22;25832;45.490;4.912;2024-03-06T02:25:17;2.10;99.90
40123;DHT22;25832;45.490;4.912;2024-03-06T02:27:44;2.00;99.90
40123;DHT22;25832;45.490;4.912;2024-03-06T02:30:10;2.00;99.90
40123;DHT22;25832;45.490;4.912;2024-03-06T02:32:36;2.00;99.90
40123;DHT22;25832;45.490;4.912;2024-03-06T02:35:02;2.00;99.90
40123;DHT22;25832;45.490;4.912;2024-03-06T02:37:34;2.10;99.90
40123;DHT22;25832;45.490;4.912;2024-03-06T02:40:00;2.10;99.90
40123;DHT22;25832;45.490;4.912;2024-03-06T02:42:27;2.20;99.90
40123;DHT22;25832;45.490;4.912;2024-03-06T02:44:53;2.20;99.90
40123;DHT22;25832;45.490;4.912;2024-03-06T02:47:19;2.30;99.90
40123;DHT22;25832;45.490;4.912;2024-03-06T02:49:44;2.40;99.90
40123;DHT22;25832;45.490;4.912;2024-03-06T02:52:10;2.40;99.90
40123;DHT22;25832;45.490;4.912;2024-03-06T02:54:36;2.40;99.90
40123;DHT22;25832;45.490;4.912;2024-03-06T02:57:01;2.50;99.90
40123;DHT22;25832;45.490;4.912;2024-03-06T02:59:27;2.50;99.90
40123;DHT22;25832;45.490;4.912;2024-03-06T03:01:53;2.60;99.90
40123;DHT22;25832;45.490;4.912;2024-03-06T03:04:18;2.60;99.90
40123;DHT22;25832;45.490;4.912;2024-03-06T03:06:44;2.60;99.90
40123;DHT22;25832;45.490;4.912;2024-03-06T03:09:10;2.60;99.90
40123;DHT22;25832;45.490;4.912;2024-03-06T03:11:37;2.50;99.90
40123;DHT22;25832;45.490;4.912;2024-03-06T03:14:03;2.40;99.90
40123;DHT22;25832;45.490;4.912;2024-03-06T03:16:29;2.40;99.90
40123;DHT22;25832;45.490;4.912;2024-03-06T03:18:55;2.30;99.90
40123;DHT22;25832;45.490;4.912;2024-03-06T03:21:21;2.30;99.90
40123;DHT22;25832;45.490;4.912;2024-03-06T03:23:47;2.30;99.90
40123;DHT22;25832;45.490;4.912;2024-03-06T03:26:14;2.40;99.90
40123;DHT22;25832;45.490;4.912;2024-03-06T03:28:40;2.50;99.90
40123;DHT22;25832;45.490;4.912;2024-03-06T03:31:07;2.40;99.90
40123;DHT22;25832;45.490;4.912;2024-03-06T03:33:34;2.30;99.90
40123;DHT22;25832;45.490;4.912;2024-03-06T03:36:04;2.20;99.90
40123;DHT22;25832;45.490;4.912;2024-03-06T03:38:31;2.20;99.90
40123;DHT22;25832;45.490;4.912;2024-03-06T03:40:56;2.10;99.90
40123;DHT22;25832;45.490;4.912;2024-03-06T03:43:22;2.00;99.90
40123;DHT22;25832;45.490;4.912;2024-03-06T03:45:48;2.00;99.90
40123;DHT22;25832;45.490;4.912;2024-03-06T03:48:13;2.00;99.90
40123;DHT22;25832;45.490;4.912;2024-03-06T03:50:40;2.00;99.90
40123;DHT22;25832;45.490;4.912;2024-03-06T03:53:05;2.00;99.90
40123;DHT22;25832;45.490;4.912;2024-03-06T03:55:31;1.90;99.90
40123;DHT22;25832;45.490;4.912;2024-03-06T03:57:57;1.90;99.90
40123;DHT22;25832;45.490;4.912;2024-03-06T04:00:22;1.90;99.90
40123;DHT22;25832;45.490;4.912;2024-03-06T04:02:48;2.00;99.90
40123;DHT22;25832;45.490;4.912;2024-03-06T04:05:14;2.00;99.90
40123;DHT22;25832;45.490;4.912;2024-03-06T04:07:40;2.00;99.90
40123;DHT22;25832;45.490;4.912;2024-03-06T04:10:06;2.10;99.90
40123;DHT22;25832;45.490;4.912;2024-03-06T04:12:32;2.10;99.90
40123;DHT22;25832;45.490;4.912;2024-03-06T04:14:58;2.20;99.90
40123;DHT22;25832;45.490;4.912;2024-03-06T04:17:23;2.20;99.90
40123;DHT22;25832;45.490;4.912;2024-03-06T04:19:50;2.30;99.90
40123;DHT22;25832;45.490;4.912;2024-03-06T04:22:19;2.30;99.90
40123;DHT22;25832;45.490;4.912;2024-03-06T04:24:44;2.40;99.90
40123;DHT22;25832;45.490;4.912;2024-03-06T04:27:10;2.40;99.90
40123;DHT22;25832;45.490;4.912;2024-03-06T04:29:36;2.40;99.90
40123;DHT22;25832;45.490;4.912;2024-03-06T04:32:01;2.40;99.90
40123;DHT22;25832;45.490;4.912;2024-03-06T04:34:27;2.40;99.90
40123;DHT22;25832;45.490;4.912;2024-03-06T04:36:53;2.40;99.90
40123;DHT22;25832;45.490;4.912;2024-03-06T04:39:18;2.40;99.90
40123;DHT22;25832;45.490;4.912;2024-03-06T04:41:44;2.50;99.90
40123;DHT22;25832;45.490;4.912;2024-03-06T04:44:10;2.50;99.90
40123;DHT22;25832;45.490;4.912;2024-03-06T04:46:35;2.50;99.90
40123;DHT22;25832;45.490;4.912;2024-03-06T04:49:01;2.50;99.90
40123;DHT22;25832;45.490;4.912;2024-03-06T04:51:26;2.60;99.90
40123;DHT22;25832;45.490;4.912;2024-03-06T04:53:52;2.60;99.90
40123;DHT22;25832;45.490;4.912;2024-03-06T04:56:18;2.60;99.90
40123;DHT22;25832;45.490;4.912;2024-03-06T04:58:47;2.60;99.90
40123;DHT22;25832;45.490;4.912;2024-03-06T05:01:13;2.60;99.90
40123;DHT22;25832;45.490;4.912;2024-03-06T05:03:39;2.60;99.90
40123;DHT22;25832;45.490;4.912;2024-03-06T05:06:05;2.70;99.90
40123;DHT22;25832;45.490;4.912;2024-03-06T05:08:31;2.70;99.90
40123;DHT22;25832;45.490;4.912;2024-03-06T05:10:59;2.80;99.90
40123;DHT22;25832;45.490;4.912;2024-03-06T05:13:25;2.80;99.90
40123;DHT22;25832;45.490;4.912;2024-03-06T05:15:51;2.80;99.90
40123;DHT22;25832;45.490;4.912;2024-03-06T05:18:17;2.90;99.90
40123;DHT22;25832;45.490;4.912;2024-03-06T05:20:43;2.90;99.90
40123;DHT22;25832;45.490;4.912;2024-03-06T05:23:09;2.90;99.90
40123;DHT22;25832;45.490;4.912;2024-03-06T05:25:34;2.90;99.90
40123;DHT22;25832;45.490;4.912;2024-03-06T05:28:00;2.90;99.90
40123;DHT22;25832;45.490;4.912;2024-03-06T05:30:25;2.90;99.90
40123;DHT22;25832;45.490;4.912;2024-03-06T05:32:51;2.90;99.90
40123;DHT22;25832;45.490;4.912;2024-03-06T05:35:17;2.90;99.90
40123;DHT22;25832;45.490;4.912;2024-03-06T05:37:43;2.90;99.90
40123;DHT22;25832;45.490;4.912;2024-03-06T05:40:09;2.90;99.90
40123;DHT22;25832;45.490;4.912;2024-03-06T05:42:35;2.90;99.90
40123;DHT22;25832;45.490;4.912;2024-03-06T05:45:01;3.00;99.90
40123;DHT22;25832;45.490;4.912;2024-03-06T05:47:32;3.00;99.90
40123;DHT22;25832;45.490;4.912;2024-03-06T05:49:57;3.00;99.90
40123;DHT22;25832;45.490;4.912;2024-03-06T05:52:23;3.00;99.90
40123;DHT22;25832;45.490;4.912;2024-03-06T05:54:49;3.00;99.90
40123;DHT22;25832;45.490;4.912;2024-03-06T05:57:16;3.00;99.90
40123;DHT22;25832;45.490;4.912;2024-03-06T05:59:41;3.00;99.90
40123;DHT22;25832;45.490;4.912;2024-03-06T06:02:07;3.00;99.90
40123;DHT22;25832;45.490;4.912;2024-03-06T06:04:33;3.00;99.90
40123;DHT22;25832;45.490;4.912;2024-03-06T06:06:59;3.00;99.90
40123;DHT22;25832;45.490;4.912;2024-03-06T06:09:24;3.00;99.90
40123;DHT22;25832;45.490;4.912;2024-03-06T06:11:50;3.00;99.90
40123;DHT22;25832;45.490;4.912;2024-03-06T06:14:16;3.00;99.90
40123;DHT22;25832;45.490;4.912;2024-03-06T06:16:42;3.10;99.90
40123;DHT22;25832;45.490;4.912;2024-03-06T06:19:08;3.10;99.90
40123;DHT22;25832;45.490;4.912;2024-03-06T06:21:34;3.10;99.90
40123;DHT22;25832;45.490;4.912;2024-03-06T06:24:01;3.10;99.90
40123;DHT22;25832;45.490;4.912;2024-03-06T06:26:29;3.10;99.90
40123;DHT22;25832;45.490;4.912;2024-03-06T06:28:56;3.10;99.90
40123;DHT22;25832;45.490;4.912;2024-03-06T06:31:23;3.20;99.90
40123;DHT22;25832;45.490;4.912;2024-03-06T06:33:49;3.20;99.90
40123;DHT22;25832;45.490;4.912;2024-03-06T06:36:15;3.20;99.90
40123;DHT22;25832;45.490;4.912;2024-03-06T06:38:40;3.20;99.90
40123;DHT22;25832;45.490;4.912;2024-03-06T06:41:06;3.20;99.90
40123;DHT22;25832;45.490;4.912;2024-03-06T06:43:31;3.30;99.90
40123;DHT22;25832;45.490;4.912;2024-03-06T06:45:57;3.30;99.90
40123;DHT22;25832;45.490;4.912;2024-03-06T06:48:23;3.30;99.90
40123;DHT22;25832;45.490;4.912;2024-03-06T06:50:48;3.30;99.90
40123;DHT22;25832;45.490;4.912;2024-03-06T06:53:14;3.30;99.90
40123;DHT22;25832;45.490;4.912;2024-03-06T06:55:40;3.30;99.90
40123;DHT22;25832;45.490;4.912;2024-03-06T06:58:05;3.30;99.90
40123;DHT22;25832;45.490;4.912;2024-03-06T07:00:31;3.40;99.90
40123;DHT22;25832;45.490;4.912;2024-03-06T07:02:58;3.40;99.90
40123;DHT22;25832;45.490;4.912;2024-03-06T07:05:24;3.50;99.90
40123;DHT22;25832;45.490;4.912;2024-03-06T07:07:50;3.50;99.90
40123;DHT22;25832;45.490;4.912;2024-03-06T07:10:15;3.60;99.90
40123;DHT22;25832;45.490;4.912;2024-03-06T07:12:41;3.60;99.90
40123;DHT22;25832;45.490;4.912;2024-03-06T07:15:07;3.70;99.90
40123;DHT22;25832;45.490;4.912;2024-03-06T07:17:32;3.80;99.90
40123;DHT22;25832;45.490;4.912;2024-03-06T07:19:58;3.90;99.90
40123;DHT22;25832;45.490;4.912;2024-03-06T07:22:24;3.90;99.90
40123;DHT22;25832;45.490;4.912;2024-03-06T07:24:50;4.00;99.90
40123;DHT22;25832;45.490;4.912;2024-03-06T07:27:15;4.00;99.90
40123;DHT22;25832;45.490;4.912;2024-03-06T07:29:41;4.10;99.90
40123;DHT22;25832;45.490;4.912;2024-03-06T07:32:07;4.10;99.90
40123;DHT22;25832;45.490;4.912;2024-03-06T07:34:33;4.20;99.90
40123;DHT22;25832;45.490;4.912;2024-03-06T07:36:59;4.20;99.90
40123;DHT22;25832;45.490;4.912;2024-03-06T07:39:25;4.20;99.90
40123;DHT22;25832;45.490;4.912;2024-03-06T07:41:51;4.30;99.90
40123;DHT22;25832;45.490;4.912;2024-03-06T07:44:17;4.30;99.90
40123;DHT22;25832;45.490;4.912;2024-03-06T07:46:42;4.40;99.90
40123;DHT22;25832;45.490;4.912;2024-03-06T07:49:08;4.50;99.90
40123;DHT22;25832;45.490;4.912;2024-03-06T07:51:34;4.50;99.90
40123;DHT22;25832;45.490;4.912;2024-03-06T07:54:01;4.60;99.90
40123;DHT22;25832;45.490;4.912;2024-03-06T07:56:27;4.70;99.90
40123;DHT22;25832;45.490;4.912;2024-03-06T07:58:54;4.80;99.90
40123;DHT22;25832;45.490;4.912;2024-03-06T08:01:20;4.90;99.90
40123;DHT22;25832;45.490;4.912;2024-03-06T08:03:49;4.90;99.90
40123;DHT22;25832;45.490;4.912;2024-03-06T08:06:15;5.00;99.90
40123;DHT22;25832;45.490;4.912;2024-03-06T08:08:42;5.10;99.90
40123;DHT22;25832;45.490;4.912;2024-03-06T08:11:10;5.20;99.90
40123;DHT22;25832;45.490;4.912;2024-03-06T08:13:36;5.20;99.90
40123;DHT22;25832;45.490;4.912;2024-03-06T08:16:02;5.30;99.90
40123;DHT22;25832;45.490;4.912;2024-03-06T08:18:29;5.30;99.90
40123;DHT22;25832;45.490;4.912;2024-03-06T08:20:55;5.30;99.90
40123;DHT22;25832;45.490;4.912;2024-03-06T08:23:20;5.30;99.90
40123;DHT22;25832;45.490;4.912;2024-03-06T08:25:46;5.30;99.90
40123;DHT22;25832;45.490;4.912;2024-03-06T08:28:12;5.30;99.90
40123;DHT22;25832;45.490;4.912;2024-03-06T08:30:37;5.30;99.90
40123;DHT22;25832;45.490;4.912;2024-03-06T08:33:03;5.30;99.90
40123;DHT22;25832;45.490;4.912;2024-03-06T08:35:29;5.30;99.90
40123;DHT22;25832;45.490;4.912;2024-03-06T08:37:55;5.40;99.90
40123;DHT22;25832;45.490;4.912;2024-03-06T08:40:21;5.50;99.90
40123;DHT22;25832;45.490;4.912;2024-03-06T08:42:48;5.60;99.90
40123;DHT22;25832;45.490;4.912;2024-03-06T08:45:14;5.70;99.90
40123;DHT22;25832;45.490;4.912;2024-03-06T08:47:44;5.70;99.90
40123;DHT22;25832;45.490;4.912;2024-03-06T08:50:10;5.80;99.90
40123;DHT22;25832;45.490;4.912;2024-03-06T08:52:37;5.80;99.90
40123;DHT22;25832;45.490;4.912;2024-03-06T08:55:03;5.90;99.90
40123;DHT22;25832;45.490;4.912;2024-03-06T08:57:32;5.90;99.90
40123;DHT22;25832;45.490;4.912;2024-03-06T08:59:58;6.00;99.90
40123;DHT22;25832;45.490;4.912;2024-03-06T09:02:24;6.00;99.90
40123;DHT22;25832;45.490;4.912;2024-03-06T09:04:52;6.10;99.90
40123;DHT22;25832;45.490;4.912;2024-03-06T09:07:18;6.10;99.90
40123;DHT22;25832;45.490;4.912;2024-03-06T09:09:44;6.20;99.90
40123;DHT22;25832;45.490;4.912;2024-03-06T09:12:10;6.20;99.90
40123;DHT22;25832;45.490;4.912;2024-03-06T09:14:37;6.30;99.90
40123;DHT22;25832;45.490;4.912;2024-03-06T09:17:04;6.30;99.90
40123;DHT22;25832;45.490;4.912;2024-03-06T09:19:31;6.40;99.90
40123;DHT22;25832;45.490;4.912;2024-03-06T09:21:56;6.40;99.90
40123;DHT22;25832;45.490;4.912;2024-03-06T09:24:23;6.50;99.90
40123;DHT22;25832;45.490;4.912;2024-03-06T09:26:49;6.60;99.90
40123;DHT22;25832;45.490;4.912;2024-03-06T09:29:15;6.80;99.90
40123;DHT22;25832;45.490;4.912;2024-03-06T09:31:41;6.90;99.90
40123;DHT22;25832;45.490;4.912;2024-03-06T09:34:07;7.00;99.90
40123;DHT22;25832;45.490;4.912;2024-03-06T09:36:36;7.10;99.90
40123;DHT22;25832;45.490;4.912;2024-03-06T09:39:02;7.10;99.90
40123;DHT22;25832;45.490;4.912;2024-03-06T09:41:30;7.00;99.90
40123;DHT22;25832;45.490;4.912;2024-03-06T09:43:56;6.90;99.90
40123;DHT22;25832;45.490;4.912;2024-03-06T09:46:22;7.00;99.90
40123;DHT22;25832;45.490;4.912;2024-03-06T09:48:49;7.10;99.90
40123;DHT22;25832;45.490;4.912;2024-03-06T09:51:17;7.20;99.90
40123;DHT22;25832;45.490;4.912;2024-03-06T09:53:42;7.30;99.90
40123;DHT22;25832;45.490;4.912;2024-03-06T09:56:09;7.40;99.90
40123;DHT22;25832;45.490;4.912;2024-03-06T09:58:37;7.50;99.90
40123;DHT22;25832;45.490;4.912;2024-03-06T10:01:04;7.60;99.90
40123;DHT22;25832;45.490;4.912;2024-03-06T10:03:33;7.70;99.90
40123;DHT22;25832;45.490;4.912;2024-03-06T10:05:59;7.80;99.90
40123;DHT22;25832;45.490;4.912;2024-03-06T10:08:25;7.80;99.90
40123;DHT22;25832;45.490;4.912;2024-03-06T10:10:52;7.80;99.90
40123;DHT22;25832;45.490;4.912;2024-03-06T10:13:18;7.80;99.90
40123;DHT22;25832;45.490;4.912;2024-03-06T10:16:03;7.90;99.90
40123;DHT22;25832;45.490;4.912;2024-03-06T10:18:31;8.20;99.90
40123;DHT22;25832;45.490;4.912;2024-03-06T10:20:58;8.30;99.90
40123;DHT22;25832;45.490;4.912;2024-03-06T10:23:24;8.40;99.90
40123;DHT22;25832;45.490;4.912;2024-03-06T10:25:50;8.50;99.90
40123;DHT22;25832;45.490;4.912;2024-03-06T10:28:18;8.60;99.90
40123;DHT22;25832;45.490;4.912;2024-03-06T10:30:44;8.60;99.90
40123;DHT22;25832;45.490;4.912;2024-03-06T10:33:15;8.70;99.90
40123;DHT22;25832;45.490;4.912;2024-03-06T10:35:42;8.60;99.90
40123;DHT22;25832;45.490;4.912;2024-03-06T10:38:09;8.40;99.90
40123;DHT22;25832;45.490;4.912;2024-03-06T10:40:38;8.30;99.90
40123;DHT22;25832;45.490;4.912;2024-03-06T10:43:05;8.30;99.90
40123;DHT22;25832;45.490;4.912;2024-03-06T10:45:50;8.20;99.90
40123;DHT22;25832;45.490;4.912;2024-03-06T10:48:17;8.30;99.90
40123;DHT22;25832;45.490;4.912;2024-03-06T10:50:44;8.30;99.90
40123;DHT22;25832;45.490;4.912;2024-03-06T10:53:11;8.10;99.90
40123;DHT22;25832;45.490;4.912;2024-03-06T10:55:39;7.90;99.90
40123;DHT22;25832;45.490;4.912;2024-03-06T10:58:08;8.00;99.90
40123;DHT22;25832;45.490;4.912;2024-03-06T11:00:39;8.30;99.90
40123;DHT22;25832;45.490;4.912;2024-03-06T11:03:09;8.50;99.90
40123;DHT22;25832;45.490;4.912;2024-03-06T11:05:46;8.70;99.90
40123;DHT22;25832;45.490;4.912;2024-03-06T11:08:14;9.10;99.90
40123;DHT22;25832;45.490;4.912;2024-03-06T11:10:41;9.20;99.90
40123;DHT22;25832;45.490;4.912;2024-03-06T11:15:46;9.40;99.90
40123;DHT22;25832;45.490;4.912;2024-03-06T11:23:32;9.70;99.90
40123;DHT22;25832;45.490;4.912;2024-03-06T11:26:05;9.70;99.90
40123;DHT22;25832;45.490;4.912;2024-03-06T11:28:36;9.80;99.90
40123;DHT22;25832;45.490;4.912;2024-03-06T11:31:07;9.90;99.90
40123;DHT22;25832;45.490;4.912;2024-03-06T11:33:46;9.70;99.90
40123;DHT22;25832;45.490;4.912;2024-03-06T11:36:28;9.40;99.90
40123;DHT22;25832;45.490;4.912;2024-03-06T11:38:58;9.40;99.90
40123;DHT22;25832;45.490;4.912;2024-03-06T11:41:29;9.40;99.90
40123;DHT22;25832;45.490;4.912;2024-03-06T11:43:56;9.60;99.90
40123;DHT22;25832;45.490;4.912;2024-03-06T11:46:23;9.70;99.90
40123;DHT22;25832;45.490;4.912;2024-03-06T11:49:21;9.80;99.90
40123;DHT22;25832;45.490;4.912;2024-03-06T11:51:51;9.90;99.90
40123;DHT22;25832;45.490;4.912;2024-03-06T11:54:17;10.00;99.90
40123;DHT22;25832;45.490;4.912;2024-03-06T11:56:50;10.00;99.90
40123;DHT22;25832;45.490;4.912;2024-03-06T11:59:17;10.00;99.90
40123;DHT22;25832;45.490;4.912;2024-03-06T12:01:43;10.10;99.90
40123;DHT22;25832;45.490;4.912;2024-03-06T12:04:09;10.10;99.90
40123;DHT22;25832;45.490;4.912;2024-03-06T12:06:36;9.90;99.90
40123;DHT22;25832;45.490;4.912;2024-03-06T12:09:02;9.80;99.90
40123;DHT22;25832;45.490;4.912;2024-03-06T12:11:29;9.50;99.90
40123;DHT22;25832;45.490;4.912;2024-03-06T12:13:56;9.50;99.90
40123;DHT22;25832;45.490;4.912;2024-03-06T12:16:22;9.60;99.90
40123;DHT22;25832;45.490;4.912;2024-03-06T12:18:55;9.80;99.90
40123;DHT22;25832;45.490;4.912;2024-03-06T12:21:32;9.70;99.90
40123;DHT22;25832;45.490;4.912;2024-03-06T12:24:08;9.60;99.20
40123;DHT22;25832;45.490;4.912;2024-03-06T12:26:36;9.70;99.90
40123;DHT22;25832;45.490;4.912;2024-03-06T12:29:08;9.80;99.90
40123;DHT22;25832;45.490;4.912;2024-03-06T12:31:36;10.10;99.60
40123;DHT22;25832;45.490;4.912;2024-03-06T12:34:02;10.10;97.40
40123;DHT22;25832;45.490;4.912;2024-03-06T12:36:28;9.80;97.10
40123;DHT22;25832;45.490;4.912;2024-03-06T12:38:56;9.70;98.40
40123;DHT22;25832;45.490;4.912;2024-03-06T12:41:22;9.60;98.90
40123;DHT22;25832;45.490;4.912;2024-03-06T12:43:48;9.80;99.40
40123;DHT22;25832;45.490;4.912;2024-03-06T12:46:13;9.90;98.20
40123;DHT22;25832;45.490;4.912;2024-03-06T12:48:39;10.10;97.80
40123;DHT22;25832;45.490;4.912;2024-03-06T12:51:04;10.30;96.60
40123;DHT22;25832;45.490;4.912;2024-03-06T12:53:30;10.30;95.40
40123;DHT22;25832;45.490;4.912;2024-03-06T12:55:58;10.40;98.10
40123;DHT22;25832;45.490;4.912;2024-03-06T12:58:24;10.40;95.60
40123;DHT22;25832;45.490;4.912;2024-03-06T13:00:49;10.50;97.00
40123;DHT22;25832;45.490;4.912;2024-03-06T13:03:17;10.60;97.60
40123;DHT22;25832;45.490;4.912;2024-03-06T13:05:43;10.50;95.90
40123;DHT22;25832;45.490;4.912;2024-03-06T13:08:10;10.50;96.10
40123;DHT22;25832;45.490;4.912;2024-03-06T13:10:39;10.40;95.50
40123;DHT22;25832;45.490;4.912;2024-03-06T13:13:05;10.20;95.70
40123;DHT22;25832;45.490;4.912;2024-03-06T13:15:32;10.20;96.30
40123;DHT22;25832;45.490;4.912;2024-03-06T13:18:02;10.10;95.90
40123;DHT22;25832;45.490;4.912;2024-03-06T13:20:29;9.90;96.20
40123;DHT22;25832;45.490;4.912;2024-03-06T13:22:55;9.90;96.00
40123;DHT22;25832;45.490;4.912;2024-03-06T13:25:21;9.80;96.60
40123;DHT22;25832;45.490;4.912;2024-03-06T13:27:46;9.70;97.10
40123;DHT22;25832;45.490;4.912;2024-03-06T13:30:12;9.60;99.10
40123;DHT22;25832;45.490;4.912;2024-03-06T13:32:38;9.50;98.80
40123;DHT22;25832;45.490;4.912;2024-03-06T13:35:05;9.60;99.70
40123;DHT22;25832;45.490;4.912;2024-03-06T13:37:32;9.60;99.10
40123;DHT22;25832;45.490;4.912;2024-03-06T13:39:59;9.70;99.30
40123;DHT22;25832;45.490;4.912;2024-03-06T13:42:27;9.80;99.50
40123;DHT22;25832;45.490;4.912;2024-03-06T13:44:52;10.10;98.60
40123;DHT22;25832;45.490;4.912;2024-03-06T13:47:19;10.20;97.90
40123;DHT22;25832;45.490;4.912;2024-03-06T13:49:45;10.30;98.20
40123;DHT22;25832;45.490;4.912;2024-03-06T13:52:10;10.40;96.90
40123;DHT22;25832;45.490;4.912;2024-03-06T13:54:39;10.50;98.40
40123;DHT22;25832;45.490;4.912;2024-03-06T13:57:07;10.60;97.00
40123;DHT22;25832;45.490;4.912;2024-03-06T13:59:34;10.60;97.20
40123;DHT22;25832;45.490;4.912;2024-03-06T14:02:00;10.70;97.00
40123;DHT22;25832;45.490;4.912;2024-03-06T14:04:26;10.80;96.60
40123;DHT22;25832;45.490;4.912;2024-03-06T14:06:52;10.80;97.30
40123;DHT22;25832;45.490;4.912;2024-03-06T14:09:18;10.70;97.40
40123;DHT22;25832;45.490;4.912;2024-03-06T14:11:44;10.50;97.30
40123;DHT22;25832;45.490;4.912;2024-03-06T14:14:10;10.30;97.10
40123;DHT22;25832;45.490;4.912;2024-03-06T14:16:37;10.10;97.60
40123;DHT22;25832;45.490;4.912;2024-03-06T14:19:02;9.90;98.90
40123;DHT22;25832;45.490;4.912;2024-03-06T14:21:30;9.80;98.20
40123;DHT22;25832;45.490;4.912;2024-03-06T14:23:59;9.70;99.60
40123;DHT22;25832;45.490;4.912;2024-03-06T14:26:25;9.60;98.70
40123;DHT22;25832;45.490;4.912;2024-03-06T14:28:53;9.50;98.30
40123;DHT22;25832;45.490;4.912;2024-03-06T14:31:18;9.50;98.30
40123;DHT22;25832;45.490;4.912;2024-03-06T14:33:44;9.40;98.80
40123;DHT22;25832;45.490;4.912;2024-03-06T14:36:10;9.40;98.90
40123;DHT22;25832;45.490;4.912;2024-03-06T14:38:36;9.30;99.00
40123;DHT22;25832;45.490;4.912;2024-03-06T14:41:01;9.20;99.60
40123;DHT22;25832;45.490;4.912;2024-03-06T14:43:27;9.20;99.80
40123;DHT22;25832;45.490;4.912;2024-03-06T14:45:53;9.20;99.00
40123;DHT22;25832;45.490;4.912;2024-03-06T14:48:18;9.10;99.50
40123;DHT22;25832;45.490;4.912;2024-03-06T14:50:44;9.10;99.30
40123;DHT22;25832;45.490;4.912;2024-03-06T14:53:09;9.20;99.60
40123;DHT22;25832;45.490;4.912;2024-03-06T14:55:35;9.20;99.90
40123;DHT22;25832;45.490;4.912;2024-03-06T14:58:01;9.20;99.90
40123;DHT22;25832;45.490;4.912;2024-03-06T15:00:27;9.10;99.90
40123;DHT22;25832;45.490;4.912;2024-03-06T15:02:52;9.00;99.90
40123;DHT22;25832;45.490;4.912;2024-03-06T15:05:18;9.00;99.90
40123;DHT22;25832;45.490;4.912;2024-03-06T15:07:44;9.00;99.90
40123;DHT22;25832;45.490;4.912;2024-03-06T15:10:09;8.90;99.90
40123;DHT22;25832;45.490;4.912;2024-03-06T15:12:35;8.80;99.90
40123;DHT22;25832;45.490;4.912;2024-03-06T15:15:04;8.80;99.90
40123;DHT22;25832;45.490;4.912;2024-03-06T15:17:32;8.80;99.90
40123;DHT22;25832;45.490;4.912;2024-03-06T15:19:58;8.80;99.90
40123;DHT22;25832;45.490;4.912;2024-03-06T15:22:24;8.80;99.90
40123;DHT22;25832;45.490;4.912;2024-03-06T15:24:50;8.80;99.90
40123;DHT22;25832;45.490;4.912;2024-03-06T15:27:18;8.80;99.90
40123;DHT22;25832;45.490;4.912;2024-03-06T15:29:44;8.80;99.90
40123;DHT22;25832;45.490;4.912;2024-03-06T15:32:09;8.80;99.90
40123;DHT22;25832;45.490;4.912;2024-03-06T15:34:36;8.70;99.90
40123;DHT22;25832;45.490;4.912;2024-03-06T15:37:02;8.70;99.90
40123;DHT22;25832;45.490;4.912;2024-03-06T15:39:28;8.80;99.90
40123;DHT22;25832;45.490;4.912;2024-03-06T15:41:54;8.90;99.90
40123;DHT22;25832;45.490;4.912;2024-03-06T15:44:21;9.00;99.90
40123;DHT22;25832;45.490;4.912;2024-03-06T15:46:46;8.90;99.90
40123;DHT22;25832;45.490;4.912;2024-03-06T15:49:20;9.00;99.90